Earling, Iowa
Current Conditions -  °F | °C
As of 8:35 AM on Sunday 23 Nov 2014 (Local Time) from KDNS Reporting Station
Overcast Overcast  
Wind Chill: 52°   Ceiling: 600
Heat Index: 52°   Visibility: 8mi
Dew Point: 52°   Wind: 9mph
Humidity: 100%   Direction: 210°SSW
Pressure: 29.47"   Gusts: NA
Location:  41.78°N, 95.42°W
Report Text: KDNS 231435Z AUTO 21008KT 8SM OVC006 11/11 A2947 RMK AO2
Loading
Personal Weather Stations






























Interactive Weather Map New forecast layout! Learn more

10-Day Weather Forecast

Advertisements
Track Severe Weather on mobile